sensor_id;sensor_type;location;lat;lon;timestamp;temperature;humidity
16263;DHT22;8239;48.594;8.598;2022-09-27T00:01:59;8.00;99.90
16263;DHT22;8239;48.594;8.598;2022-09-27T00:04:28;8.00;99.90
16263;DHT22;8239;48.594;8.598;2022-09-27T00:06:55;8.00;99.90
16263;DHT22;8239;48.594;8.598;2022-09-27T00:09:22;8.00;99.90
16263;DHT22;8239;48.594;8.598;2022-09-27T00:11:49;8.00;99.90
16263;DHT22;8239;48.594;8.598;2022-09-27T00:14:17;8.00;99.90
16263;DHT22;8239;48.594;8.598;2022-09-27T00:16:45;8.00;99.90
16263;DHT22;8239;48.594;8.598;2022-09-27T00:19:14;8.00;99.90
16263;DHT22;8239;48.594;8.598;2022-09-27T00:21:44;8.00;99.90
16263;DHT22;8239;48.594;8.598;2022-09-27T00:24:12;8.00;99.90
16263;DHT22;8239;48.594;8.598;2022-09-27T00:26:40;8.00;99.90
16263;DHT22;8239;48.594;8.598;2022-09-27T00:29:08;8.00;99.90
16263;DHT22;8239;48.594;8.598;2022-09-27T00:31:36;8.00;99.90
16263;DHT22;8239;48.594;8.598;2022-09-27T00:34:04;8.10;99.90
16263;DHT22;8239;48.594;8.598;2022-09-27T00:36:33;8.10;99.90
16263;DHT22;8239;48.594;8.598;2022-09-27T00:39:02;8.10;99.90
16263;DHT22;8239;48.594;8.598;2022-09-27T00:41:30;8.10;99.90
16263;DHT22;8239;48.594;8.598;2022-09-27T00:44:00;8.10;99.90
16263;DHT22;8239;48.594;8.598;2022-09-27T00:46:32;8.10;99.90
16263;DHT22;8239;48.594;8.598;2022-09-27T00:49:05;8.10;99.90
16263;DHT22;8239;48.594;8.598;2022-09-27T00:51:35;8.10;99.90
16263;DHT22;8239;48.594;8.598;2022-09-27T00:54:07;8.20;99.90
16263;DHT22;8239;48.594;8.598;2022-09-27T00:56:36;8.20;99.90
16263;DHT22;8239;48.594;8.598;2022-09-27T00:59:10;8.20;99.90
16263;DHT22;8239;48.594;8.598;2022-09-27T01:01:37;8.20;99.90
16263;DHT22;8239;48.594;8.598;2022-09-27T01:04:07;8.20;99.90
16263;DHT22;8239;48.594;8.598;2022-09-27T01:06:35;8.20;99.90
16263;DHT22;8239;48.594;8.598;2022-09-27T01:09:04;8.20;99.90
16263;DHT22;8239;48.594;8.598;2022-09-27T01:11:39;8.30;99.90
16263;DHT22;8239;48.594;8.598;2022-09-27T01:14:17;8.30;99.90
16263;DHT22;8239;48.594;8.598;2022-09-27T01:16:54;8.30;99.90
16263;DHT22;8239;48.594;8.598;2022-09-27T01:19:46;8.30;99.90
16263;DHT22;8239;48.594;8.598;2022-09-27T01:22:23;8.30;99.90
16263;DHT22;8239;48.594;8.598;2022-09-27T01:25:00;8.30;99.90
16263;DHT22;8239;48.594;8.598;2022-09-27T01:30:44;8.40;99.90
16263;DHT22;8239;48.594;8.598;2022-09-27T01:33:21;8.40;99.90
16263;DHT22;8239;48.594;8.598;2022-09-27T01:36:03;8.40;99.90
16263;DHT22;8239;48.594;8.598;2022-09-27T01:38:40;8.40;99.90
16263;DHT22;8239;48.594;8.598;2022-09-27T01:41:16;8.30;99.90
16263;DHT22;8239;48.594;8.598;2022-09-27T01:43:51;8.30;99.90
16263;DHT22;8239;48.594;8.598;2022-09-27T01:46:24;8.30;99.90
16263;DHT22;8239;48.594;8.598;2022-09-27T01:48:53;8.30;99.90
16263;DHT22;8239;48.594;8.598;2022-09-27T01:51:26;8.30;99.90
16263;DHT22;8239;48.594;8.598;2022-09-27T01:53:58;8.30;99.90
16263;DHT22;8239;48.594;8.598;2022-09-27T01:56:31;8.30;99.90
16263;DHT22;8239;48.594;8.598;2022-09-27T01:59:04;8.30;99.90
16263;DHT22;8239;48.594;8.598;2022-09-27T02:01:38;8.30;99.90
16263;DHT22;8239;48.594;8.598;2022-09-27T02:04:10;8.30;99.90
16263;DHT22;8239;48.594;8.598;2022-09-27T02:06:42;8.30;99.90
16263;DHT22;8239;48.594;8.598;2022-09-27T02:09:13;8.20;99.90
16263;DHT22;8239;48.594;8.598;2022-09-27T02:11:46;8.20;99.90
16263;DHT22;8239;48.594;8.598;2022-09-27T02:14:16;8.20;99.90
16263;DHT22;8239;48.594;8.598;2022-09-27T02:16:49;8.20;99.90
16263;DHT22;8239;48.594;8.598;2022-09-27T02:19:23;8.20;99.90
16263;DHT22;8239;48.594;8.598;2022-09-27T02:21:54;8.10;99.90
16263;DHT22;8239;48.594;8.598;2022-09-27T02:24:31;8.10;99.90
16263;DHT22;8239;48.594;8.598;2022-09-27T02:27:08;8.10;99.90
16263;DHT22;8239;48.594;8.598;2022-09-27T02:29:42;8.10;99.90
16263;DHT22;8239;48.594;8.598;2022-09-27T02:32:12;8.00;99.90
16263;DHT22;8239;48.594;8.598;2022-09-27T02:34:39;8.00;99.90
16263;DHT22;8239;48.594;8.598;2022-09-27T02:37:07;8.00;99.90
16263;DHT22;8239;48.594;8.598;2022-09-27T02:39:34;8.00;99.90
16263;DHT22;8239;48.594;8.598;2022-09-27T02:42:02;7.90;99.90
16263;DHT22;8239;48.594;8.598;2022-09-27T02:44:31;7.90;99.90
16263;DHT22;8239;48.594;8.598;2022-09-27T02:47:09;7.90;99.90
16263;DHT22;8239;48.594;8.598;2022-09-27T02:49:50;7.90;99.90
16263;DHT22;8239;48.594;8.598;2022-09-27T02:52:28;7.80;99.90
16263;DHT22;8239;48.594;8.598;2022-09-27T02:55:05;7.70;99.90
16263;DHT22;8239;48.594;8.598;2022-09-27T02:57:40;7.70;99.90
16263;DHT22;8239;48.594;8.598;2022-09-27T03:00:14;7.60;99.90
16263;DHT22;8239;48.594;8.598;2022-09-27T03:02:49;7.60;99.90
16263;DHT22;8239;48.594;8.598;2022-09-27T03:05:23;7.50;99.90
16263;DHT22;8239;48.594;8.598;2022-09-27T03:07:51;7.50;99.90
16263;DHT22;8239;48.594;8.598;2022-09-27T03:10:20;7.50;99.90
16263;DHT22;8239;48.594;8.598;2022-09-27T03:12:47;7.50;99.90
16263;DHT22;8239;48.594;8.598;2022-09-27T03:15:15;7.50;99.90
16263;DHT22;8239;48.594;8.598;2022-09-27T03:17:42;7.50;99.90
16263;DHT22;8239;48.594;8.598;2022-09-27T03:20:09;7.50;99.90
16263;DHT22;8239;48.594;8.598;2022-09-27T03:22:38;7.50;99.90
16263;DHT22;8239;48.594;8.598;2022-09-27T03:25:06;7.50;99.90
16263;DHT22;8239;48.594;8.598;2022-09-27T03:27:33;7.50;99.90
16263;DHT22;8239;48.594;8.598;2022-09-27T03:30:00;7.50;99.90
16263;DHT22;8239;48.594;8.598;2022-09-27T03:32:27;7.50;99.90
16263;DHT22;8239;48.594;8.598;2022-09-27T03:34:55;7.50;99.90
16263;DHT22;8239;48.594;8.598;2022-09-27T03:37:23;7.40;99.90
16263;DHT22;8239;48.594;8.598;2022-09-27T03:39:53;7.40;99.90
16263;DHT22;8239;48.594;8.598;2022-09-27T03:42:20;7.40;99.90
16263;DHT22;8239;48.594;8.598;2022-09-27T03:44:47;7.40;99.90
16263;DHT22;8239;48.594;8.598;2022-09-27T03:47:15;7.30;99.90
16263;DHT22;8239;48.594;8.598;2022-09-27T03:49:43;7.30;99.90
16263;DHT22;8239;48.594;8.598;2022-09-27T03:52:10;7.30;99.90
16263;DHT22;8239;48.594;8.598;2022-09-27T03:54:37;7.30;99.90
16263;DHT22;8239;48.594;8.598;2022-09-27T03:57:06;7.30;99.90
16263;DHT22;8239;48.594;8.598;2022-09-27T03:59:33;7.30;99.90
16263;DHT22;8239;48.594;8.598;2022-09-27T04:02:00;7.30;99.90
16263;DHT22;8239;48.594;8.598;2022-09-27T04:04:27;7.30;99.90
16263;DHT22;8239;48.594;8.598;2022-09-27T04:06:55;7.20;99.90
16263;DHT22;8239;48.594;8.598;2022-09-27T04:09:23;7.20;99.90
16263;DHT22;8239;48.594;8.598;2022-09-27T04:11:51;7.20;99.90
16263;DHT22;8239;48.594;8.598;2022-09-27T04:14:19;7.20;99.90
16263;DHT22;8239;48.594;8.598;2022-09-27T04:16:46;7.10;99.90
16263;DHT22;8239;48.594;8.598;2022-09-27T04:19:13;7.10;99.90
16263;DHT22;8239;48.594;8.598;2022-09-27T04:21:41;7.10;99.90
16263;DHT22;8239;48.594;8.598;2022-09-27T04:24:08;7.10;99.90
16263;DHT22;8239;48.594;8.598;2022-09-27T04:26:36;7.00;99.90
16263;DHT22;8239;48.594;8.598;2022-09-27T04:29:04;7.00;99.90
16263;DHT22;8239;48.594;8.598;2022-09-27T04:31:35;7.00;99.90
16263;DHT22;8239;48.594;8.598;2022-09-27T04:34:03;7.00;99.90
16263;DHT22;8239;48.594;8.598;2022-09-27T04:36:31;7.00;99.90
16263;DHT22;8239;48.594;8.598;2022-09-27T04:38:58;7.00;99.90
16263;DHT22;8239;48.594;8.598;2022-09-27T04:41:27;7.10;99.90
16263;DHT22;8239;48.594;8.598;2022-09-27T04:43:54;7.10;99.90
16263;DHT22;8239;48.594;8.598;2022-09-27T04:46:22;7.10;99.90
16263;DHT22;8239;48.594;8.598;2022-09-27T04:48:51;7.10;99.90
16263;DHT22;8239;48.594;8.598;2022-09-27T04:51:18;7.00;99.90
16263;DHT22;8239;48.594;8.598;2022-09-27T04:53:46;7.00;99.90
16263;DHT22;8239;48.594;8.598;2022-09-27T04:56:13;7.00;99.90
16263;DHT22;8239;48.594;8.598;2022-09-27T04:58:41;7.00;99.90
16263;DHT22;8239;48.594;8.598;2022-09-27T05:01:08;7.00;99.90
16263;DHT22;8239;48.594;8.598;2022-09-27T05:03:36;6.90;99.90
16263;DHT22;8239;48.594;8.598;2022-09-27T05:06:05;6.90;99.90
16263;DHT22;8239;48.594;8.598;2022-09-27T05:08:32;6.90;99.90
16263;DHT22;8239;48.594;8.598;2022-09-27T05:10:59;6.90;99.90
16263;DHT22;8239;48.594;8.598;2022-09-27T05:13:26;6.90;99.90
16263;DHT22;8239;48.594;8.598;2022-09-27T05:15:53;6.90;99.90
16263;DHT22;8239;48.594;8.598;2022-09-27T05:18:21;6.90;99.90
16263;DHT22;8239;48.594;8.598;2022-09-27T05:20:48;6.90;99.90
16263;DHT22;8239;48.594;8.598;2022-09-27T05:23:16;6.90;99.90
16263;DHT22;8239;48.594;8.598;2022-09-27T05:25:44;6.90;99.90
16263;DHT22;8239;48.594;8.598;2022-09-27T05:28:11;6.90;99.90
16263;DHT22;8239;48.594;8.598;2022-09-27T05:30:38;6.90;99.90
16263;DHT22;8239;48.594;8.598;2022-09-27T05:33:05;6.90;99.90
16263;DHT22;8239;48.594;8.598;2022-09-27T05:35:32;6.90;99.90
16263;DHT22;8239;48.594;8.598;2022-09-27T05:38:00;6.90;99.90
16263;DHT22;8239;48.594;8.598;2022-09-27T05:40:29;6.90;99.90
16263;DHT22;8239;48.594;8.598;2022-09-27T05:42:56;6.90;99.90
16263;DHT22;8239;48.594;8.598;2022-09-27T05:45:24;6.90;99.90
16263;DHT22;8239;48.594;8.598;2022-09-27T05:47:55;7.00;99.90
16263;DHT22;8239;48.594;8.598;2022-09-27T05:50:23;7.00;99.90
16263;DHT22;8239;48.594;8.598;2022-09-27T05:52:51;7.00;99.90
16263;DHT22;8239;48.594;8.598;2022-09-27T05:55:18;6.90;99.90
16263;DHT22;8239;48.594;8.598;2022-09-27T05:57:58;6.90;99.90
16263;DHT22;8239;48.594;8.598;2022-09-27T06:00:26;6.90;99.90
16263;DHT22;8239;48.594;8.598;2022-09-27T06:02:55;6.90;99.90
16263;DHT22;8239;48.594;8.598;2022-09-27T06:05:25;7.00;99.90
16263;DHT22;8239;48.594;8.598;2022-09-27T06:07:57;7.00;99.90
16263;DHT22;8239;48.594;8.598;2022-09-27T06:10:24;7.00;99.90
16263;DHT22;8239;48.594;8.598;2022-09-27T06:12:52;7.00;99.90
16263;DHT22;8239;48.594;8.598;2022-09-27T06:15:21;7.10;99.90
16263;DHT22;8239;48.594;8.598;2022-09-27T06:17:49;7.10;99.90
16263;DHT22;8239;48.594;8.598;2022-09-27T06:20:16;7.20;99.90
16263;DHT22;8239;48.594;8.598;2022-09-27T06:22:44;7.30;99.90
16263;DHT22;8239;48.594;8.598;2022-09-27T06:25:11;7.30;99.90
16263;DHT22;8239;48.594;8.598;2022-09-27T06:27:39;7.30;99.90
16263;DHT22;8239;48.594;8.598;2022-09-27T06:30:07;7.30;99.90
16263;DHT22;8239;48.594;8.598;2022-09-27T06:32:35;7.30;99.90
16263;DHT22;8239;48.594;8.598;2022-09-27T06:35:03;7.30;99.90
16263;DHT22;8239;48.594;8.598;2022-09-27T06:37:31;7.20;99.90
16263;DHT22;8239;48.594;8.598;2022-09-27T06:39:59;7.20;99.90
16263;DHT22;8239;48.594;8.598;2022-09-27T06:42:27;7.20;99.90
16263;DHT22;8239;48.594;8.598;2022-09-27T06:44:55;7.30;99.90
16263;DHT22;8239;48.594;8.598;2022-09-27T06:47:22;7.40;99.90
16263;DHT22;8239;48.594;8.598;2022-09-27T06:49:51;7.50;99.90
16263;DHT22;8239;48.594;8.598;2022-09-27T06:52:18;7.50;99.90
16263;DHT22;8239;48.594;8.598;2022-09-27T06:54:45;7.60;99.90
16263;DHT22;8239;48.594;8.598;2022-09-27T06:57:12;7.60;99.90
16263;DHT22;8239;48.594;8.598;2022-09-27T07:00:01;7.70;99.90
16263;DHT22;8239;48.594;8.598;2022-09-27T07:02:45;7.60;99.90
16263;DHT22;8239;48.594;8.598;2022-09-27T07:05:14;7.50;99.90
16263;DHT22;8239;48.594;8.598;2022-09-27T07:07:41;7.50;99.90
16263;DHT22;8239;48.594;8.598;2022-09-27T07:10:09;7.50;99.90
16263;DHT22;8239;48.594;8.598;2022-09-27T07:12:37;7.50;99.90
16263;DHT22;8239;48.594;8.598;2022-09-27T07:15:05;7.50;99.90
16263;DHT22;8239;48.594;8.598;2022-09-27T07:17:32;7.40;99.90
16263;DHT22;8239;48.594;8.598;2022-09-27T07:20:01;7.30;99.90
16263;DHT22;8239;48.594;8.598;2022-09-27T07:22:29;7.30;99.90
16263;DHT22;8239;48.594;8.598;2022-09-27T07:24:56;7.20;99.90
16263;DHT22;8239;48.594;8.598;2022-09-27T07:27:23;7.20;99.90
16263;DHT22;8239;48.594;8.598;2022-09-27T07:29:51;7.30;99.90
16263;DHT22;8239;48.594;8.598;2022-09-27T07:32:19;7.40;99.90
16263;DHT22;8239;48.594;8.598;2022-09-27T07:34:46;7.60;99.90
16263;DHT22;8239;48.594;8.598;2022-09-27T07:37:13;8.50;99.90
16263;DHT22;8239;48.594;8.598;2022-09-27T07:39:42;9.70;99.90
16263;DHT22;8239;48.594;8.598;2022-09-27T07:42:09;11.00;99.90
16263;DHT22;8239;48.594;8.598;2022-09-27T07:44:36;12.00;99.90
16263;DHT22;8239;48.594;8.598;2022-09-27T07:47:06;12.90;99.90
16263;DHT22;8239;48.594;8.598;2022-09-27T07:49:33;13.70;99.90
16263;DHT22;8239;48.594;8.598;2022-09-27T07:52:01;14.00;99.90
16263;DHT22;8239;48.594;8.598;2022-09-27T07:54:28;13.90;99.90
16263;DHT22;8239;48.594;8.598;2022-09-27T07:56:57;14.00;99.90
16263;DHT22;8239;48.594;8.598;2022-09-27T07:59:24;14.30;99.50
16263;DHT22;8239;48.594;8.598;2022-09-27T08:01:52;14.00;98.20
16263;DHT22;8239;48.594;8.598;2022-09-27T08:04:20;13.40;97.50
16263;DHT22;8239;48.594;8.598;2022-09-27T08:06:47;12.50;98.10
16263;DHT22;8239;48.594;8.598;2022-09-27T08:09:14;11.70;98.90
16263;DHT22;8239;48.594;8.598;2022-09-27T08:11:41;10.80;99.90
16263;DHT22;8239;48.594;8.598;2022-09-27T08:14:12;10.10;99.90
16263;DHT22;8239;48.594;8.598;2022-09-27T08:16:39;9.60;99.90
16263;DHT22;8239;48.594;8.598;2022-09-27T08:19:07;9.10;99.90
16263;DHT22;8239;48.594;8.598;2022-09-27T08:21:34;8.70;99.90
16263;DHT22;8239;48.594;8.598;2022-09-27T08:24:01;8.40;99.90
16263;DHT22;8239;48.594;8.598;2022-09-27T08:26:28;8.20;99.90
16263;DHT22;8239;48.594;8.598;2022-09-27T08:28:56;8.20;99.90
16263;DHT22;8239;48.594;8.598;2022-09-27T08:31:24;8.30;99.90
16263;DHT22;8239;48.594;8.598;2022-09-27T08:33:51;8.40;99.90
16263;DHT22;8239;48.594;8.598;2022-09-27T08:36:19;8.60;99.90
16263;DHT22;8239;48.594;8.598;2022-09-27T08:38:48;8.80;99.90
16263;DHT22;8239;48.594;8.598;2022-09-27T08:41:22;8.90;99.90
16263;DHT22;8239;48.594;8.598;2022-09-27T08:44:07;9.10;99.90
16263;DHT22;8239;48.594;8.598;2022-09-27T08:46:48;9.80;99.90
16263;DHT22;8239;48.594;8.598;2022-09-27T08:49:27;10.40;99.90
16263;DHT22;8239;48.594;8.598;2022-09-27T08:51:58;10.30;99.90
16263;DHT22;8239;48.594;8.598;2022-09-27T08:54:30;10.10;99.90
16263;DHT22;8239;48.594;8.598;2022-09-27T08:57:00;9.80;99.90
16263;DHT22;8239;48.594;8.598;2022-09-27T08:59:33;9.60;99.90
16263;DHT22;8239;48.594;8.598;2022-09-27T09:02:04;9.70;99.90
16263;DHT22;8239;48.594;8.598;2022-09-27T09:04:38;9.80;99.90
16263;DHT22;8239;48.594;8.598;2022-09-27T09:07:13;10.10;99.90
16263;DHT22;8239;48.594;8.598;2022-09-27T09:09:48;10.40;99.90
16263;DHT22;8239;48.594;8.598;2022-09-27T09:12:30;10.80;99.90
16263;DHT22;8239;48.594;8.598;2022-09-27T09:15:21;11.70;99.90
16263;DHT22;8239;48.594;8.598;2022-09-27T09:18:05;12.50;99.90
16263;DHT22;8239;48.594;8.598;2022-09-27T09:20:48;12.90;99.90
16263;DHT22;8239;48.594;8.598;2022-09-27T09:26:14;12.90;99.00
16263;DHT22;8239;48.594;8.598;2022-09-27T09:29:00;12.60;99.30
16263;DHT22;8239;48.594;8.598;2022-09-27T09:31:37;12.20;99.60
16263;DHT22;8239;48.594;8.598;2022-09-27T09:34:12;11.80;99.90
16263;DHT22;8239;48.594;8.598;2022-09-27T09:36:44;11.40;99.90
16263;DHT22;8239;48.594;8.598;2022-09-27T09:39:16;11.40;99.90
16263;DHT22;8239;48.594;8.598;2022-09-27T09:42:00;12.10;99.90
16263;DHT22;8239;48.594;8.598;2022-09-27T09:44:32;13.40;99.90
16263;DHT22;8239;48.594;8.598;2022-09-27T09:47:13;15.20;99.90
16263;DHT22;8239;48.594;8.598;2022-09-27T09:49:44;16.90;96.00
16263;DHT22;8239;48.594;8.598;2022-09-27T09:52:16;17.70;90.70
16263;DHT22;8239;48.594;8.598;2022-09-27T09:54:46;17.60;83.00
16263;DHT22;8239;48.594;8.598;2022-09-27T09:57:19;17.00;83.20
16263;DHT22;8239;48.594;8.598;2022-09-27T09:59:51;16.30;83.60
16263;DHT22;8239;48.594;8.598;2022-09-27T10:02:29;15.30;85.40
16263;DHT22;8239;48.594;8.598;2022-09-27T10:05:00;14.40;87.60
16263;DHT22;8239;48.594;8.598;2022-09-27T10:07:28;13.70;90.00
16263;DHT22;8239;48.594;8.598;2022-09-27T10:09:58;13.10;91.10
16263;DHT22;8239;48.594;8.598;2022-09-27T10:12:26;12.50;92.60
16263;DHT22;8239;48.594;8.598;2022-09-27T10:14:57;12.20;94.20
16263;DHT22;8239;48.594;8.598;2022-09-27T10:17:32;11.90;94.70
16263;DHT22;8239;48.594;8.598;2022-09-27T10:20:04;11.60;95.80
16263;DHT22;8239;48.594;8.598;2022-09-27T10:22:35;11.50;97.10
16263;DHT22;8239;48.594;8.598;2022-09-27T10:25:05;11.40;98.00
16263;DHT22;8239;48.594;8.598;2022-09-27T10:27:39;11.30;98.60
16263;DHT22;8239;48.594;8.598;2022-09-27T10:30:21;11.20;98.90
16263;DHT22;8239;48.594;8.598;2022-09-27T10:32:50;11.60;99.90
16263;DHT22;8239;48.594;8.598;2022-09-27T10:35:21;12.50;99.90
16263;DHT22;8239;48.594;8.598;2022-09-27T10:37:48;13.00;97.80
16263;DHT22;8239;48.594;8.598;2022-09-27T10:40:27;13.00;96.10
16263;DHT22;8239;48.594;8.598;2022-09-27T10:42:54;12.80;95.20
16263;DHT22;8239;48.594;8.598;2022-09-27T10:45:32;12.30;95.20
16263;DHT22;8239;48.594;8.598;2022-09-27T10:48:01;11.80;96.60
16263;DHT22;8239;48.594;8.598;2022-09-27T10:50:30;11.30;97.50
16263;DHT22;8239;48.594;8.598;2022-09-27T10:53:02;10.90;98.90
16263;DHT22;8239;48.594;8.598;2022-09-27T10:55:34;10.60;99.90
16263;DHT22;8239;48.594;8.598;2022-09-27T10:58:02;10.50;99.90
16263;DHT22;8239;48.594;8.598;2022-09-27T11:00:31;10.40;99.90
16263;DHT22;8239;48.594;8.598;2022-09-27T11:03:01;10.40;99.90
16263;DHT22;8239;48.594;8.598;2022-09-27T11:05:34;10.30;99.90
16263;DHT22;8239;48.594;8.598;2022-09-27T11:08:20;10.40;99.90
16263;DHT22;8239;48.594;8.598;2022-09-27T11:11:17;10.30;99.90
16263;DHT22;8239;48.594;8.598;2022-09-27T11:14:00;10.30;99.90
16263;DHT22;8239;48.594;8.598;2022-09-27T11:16:47;10.30;99.90
16263;DHT22;8239;48.594;8.598;2022-09-27T11:19:28;10.30;99.90
16263;DHT22;8239;48.594;8.598;2022-09-27T11:22:07;10.20;99.90
16263;DHT22;8239;48.594;8.598;2022-09-27T11:24:49;10.10;99.90
16263;DHT22;8239;48.594;8.598;2022-09-27T11:27:30;10.00;99.90
16263;DHT22;8239;48.594;8.598;2022-09-27T11:30:04;9.90;99.90
16263;DHT22;8239;48.594;8.598;2022-09-27T11:32:44;9.80;99.90
16263;DHT22;8239;48.594;8.598;2022-09-27T11:35:37;9.70;99.90
16263;DHT22;8239;48.594;8.598;2022-09-27T11:38:17;9.60;99.90
16263;DHT22;8239;48.594;8.598;2022-09-27T11:41:00;9.60;99.90
16263;DHT22;8239;48.594;8.598;2022-09-27T11:43:59;9.50;99.90
16263;DHT22;8239;48.594;8.598;2022-09-27T11:46:30;9.40;99.90
16263;DHT22;8239;48.594;8.598;2022-09-27T11:49:22;9.40;99.90
16263;DHT22;8239;48.594;8.598;2022-09-27T11:52:08;9.50;99.90
16263;DHT22;8239;48.594;8.598;2022-09-27T11:54:52;9.70;99.90
16263;DHT22;8239;48.594;8.598;2022-09-27T11:57:27;9.90;99.90
16263;DHT22;8239;48.594;8.598;2022-09-27T12:00:11;10.10;99.90
16263;DHT22;8239;48.594;8.598;2022-09-27T12:03:12;10.30;99.90
16263;DHT22;8239;48.594;8.598;2022-09-27T12:05:50;10.50;99.90
16263;DHT22;8239;48.594;8.598;2022-09-27T12:08:31;10.70;99.90
16263;DHT22;8239;48.594;8.598;2022-09-27T12:11:11;10.80;99.90
16263;DHT22;8239;48.594;8.598;2022-09-27T12:13:45;10.70;99.90
16263;DHT22;8239;48.594;8.598;2022-09-27T12:16:16;10.60;99.90
16263;DHT22;8239;48.594;8.598;2022-09-27T12:18:44;10.40;99.90
16263;DHT22;8239;48.594;8.598;2022-09-27T12:21:13;10.20;99.90
16263;DHT22;8239;48.594;8.598;2022-09-27T12:23:43;10.10;99.90
16263;DHT22;8239;48.594;8.598;2022-09-27T12:26:16;10.20;99.90
16263;DHT22;8239;48.594;8.598;2022-09-27T12:28:48;10.30;99.90
16263;DHT22;8239;48.594;8.598;2022-09-27T12:31:20;10.90;99.90
16263;DHT22;8239;48.594;8.598;2022-09-27T12:34:01;11.30;99.90
16263;DHT22;8239;48.594;8.598;2022-09-27T12:36:32;11.70;99.90
16263;DHT22;8239;48.594;8.598;2022-09-27T12:39:08;11.90;99.90
16263;DHT22;8239;48.594;8.598;2022-09-27T12:41:43;11.90;99.90
16263;DHT22;8239;48.594;8.598;2022-09-27T12:44:12;11.70;99.90
16263;DHT22;8239;48.594;8.598;2022-09-27T12:46:48;11.40;99.90
16263;DHT22;8239;48.594;8.598;2022-09-27T12:49:25;11.10;99.90
16263;DHT22;8239;48.594;8.598;2022-09-27T12:51:56;10.80;99.90
16263;DHT22;8239;48.594;8.598;2022-09-27T12:54:50;10.60;99.90
16263;DHT22;8239;48.594;8.598;2022-09-27T12:57:30;10.60;99.90
16263;DHT22;8239;48.594;8.598;2022-09-27T13:00:08;10.90;99.90
16263;DHT22;8239;48.594;8.598;2022-09-27T13:06:15;13.60;99.90
16263;DHT22;8239;48.594;8.598;2022-09-27T13:12:02;17.80;92.60
16263;DHT22;8239;48.594;8.598;2022-09-27T13:14:41;19.00;78.40
16263;DHT22;8239;48.594;8.598;2022-09-27T13:17:31;19.90;77.30
16263;DHT22;8239;48.594;8.598;2022-09-27T13:19:58;20.60;65.20
16263;DHT22;8239;48.594;8.598;2022-09-27T13:22:36;20.50;63.40
16263;DHT22;8239;48.594;8.598;2022-09-27T13:25:48;20.20;62.10
16263;DHT22;8239;48.594;8.598;2022-09-27T13:28:33;20.10;60.00
16263;DHT22;8239;48.594;8.598;2022-09-27T13:31:05;19.60;61.00
16263;DHT22;8239;48.594;8.598;2022-09-27T13:33:45;19.30;62.00
16263;DHT22;8239;48.594;8.598;2022-09-27T13:36:37;18.90;60.40
16263;DHT22;8239;48.594;8.598;2022-09-27T13:39:16;18.20;60.80
16263;DHT22;8239;48.594;8.598;2022-09-27T13:42:05;17.20;63.00
16263;DHT22;8239;48.594;8.598;2022-09-27T13:44:41;15.70;66.50
16263;DHT22;8239;48.594;8.598;2022-09-27T13:47:26;14.40;71.30
16263;DHT22;8239;48.594;8.598;2022-09-27T13:50:01;13.50;77.50
16263;DHT22;8239;48.594;8.598;2022-09-27T13:52:33;13.00;81.80
16263;DHT22;8239;48.594;8.598;2022-09-27T13:55:03;12.90;85.10
16263;DHT22;8239;48.594;8.598;2022-09-27T13:57:49;12.50;86.40
16263;DHT22;8239;48.594;8.598;2022-09-27T14:00:21;12.40;90.30
16263;DHT22;8239;48.594;8.598;2022-09-27T14:02:58;12.60;92.70
16263;DHT22;8239;48.594;8.598;2022-09-27T14:05:31;13.00;91.80
16263;DHT22;8239;48.594;8.598;2022-09-27T14:08:00;13.00;90.80
16263;DHT22;8239;48.594;8.598;2022-09-27T14:10:30;13.30;92.40
16263;DHT22;8239;48.594;8.598;2022-09-27T14:13:00;14.10;93.30
16263;DHT22;8239;48.594;8.598;2022-09-27T14:15:30;15.50;91.70
16263;DHT22;8239;48.594;8.598;2022-09-27T14:18:00;16.40;84.70
16263;DHT22;8239;48.594;8.598;2022-09-27T14:20:32;17.10;81.60
16263;DHT22;8239;48.594;8.598;2022-09-27T14:23:00;17.60;78.90
16263;DHT22;8239;48.594;8.598;2022-09-27T14:25:28;18.20;74.00
16263;DHT22;8239;48.594;8.598;2022-09-27T14:27:55;18.40;70.10
16263;DHT22;8239;48.594;8.598;2022-09-27T14:30:26;18.80;70.00
16263;DHT22;8239;48.594;8.598;2022-09-27T14:32:55;19.20;68.80
16263;DHT22;8239;48.594;8.598;2022-09-27T14:35:27;19.40;64.00
16263;DHT22;8239;48.594;8.598;2022-09-27T14:38:15;19.10;62.30
16263;DHT22;8239;48.594;8.598;2022-09-27T14:40:53;19.10;63.80
16263;DHT22;8239;48.594;8.598;2022-09-27T14:43:21;19.10;62.60
16263;DHT22;8239;48.594;8.598;2022-09-27T14:45:50;19.50;61.20
16263;DHT22;8239;48.594;8.598;2022-09-27T14:48:21;19.70;59.80
16263;DHT22;8239;48.594;8.598;2022-09-27T14:50:54;19.60;56.80
16263;DHT22;8239;48.594;8.598;2022-09-27T14:53:26;19.20;56.10
16263;DHT22;8239;48.594;8.598;2022-09-27T14:55:55;19.10;57.70
16263;DHT22;8239;48.594;8.598;2022-09-27T14:58:22;19.00;57.90
16263;DHT22;8239;48.594;8.598;2022-09-27T15:00:51;19.00;57.70
16263;DHT22;8239;48.594;8.598;2022-09-27T15:03:22;19.00;57.50
16263;DHT22;8239;48.594;8.598;2022-09-27T15:05:53;18.80;57.60
16263;DHT22;8239;48.594;8.598;2022-09-27T15:08:23;18.30;56.50
16263;DHT22;8239;48.594;8.598;2022-09-27T15:10:51;17.20;57.60
16263;DHT22;8239;48.594;8.598;2022-09-27T15:13:19;15.90;60.00
16263;DHT22;8239;48.594;8.598;2022-09-27T15:15:47;14.60;64.70
16263;DHT22;8239;48.594;8.598;2022-09-27T15:18:33;14.20;69.00
16263;DHT22;8239;48.594;8.598;2022-09-27T15:21:07;14.00;72.10
16263;DHT22;8239;48.594;8.598;2022-09-27T15:23:37;14.10;74.00
16263;DHT22;8239;48.594;8.598;2022-09-27T15:26:09;14.00;70.60
16263;DHT22;8239;48.594;8.598;2022-09-27T15:28:42;13.50;71.20
16263;DHT22;8239;48.594;8.598;2022-09-27T15:31:09;13.00;73.10
16263;DHT22;8239;48.594;8.598;2022-09-27T15:33:38;12.50;74.70
16263;DHT22;8239;48.594;8.598;2022-09-27T15:36:09;12.20;77.30
16263;DHT22;8239;48.594;8.598;2022-09-27T15:38:38;12.00;79.10
16263;DHT22;8239;48.594;8.598;2022-09-27T15:41:12;11.80;80.30
16263;DHT22;8239;48.594;8.598;2022-09-27T15:43:42;11.50;81.50
16263;DHT22;8239;48.594;8.598;2022-09-27T15:46:34;11.20;83.40
16263;DHT22;8239;48.594;8.598;2022-09-27T15:49:27;10.80;84.90
16263;DHT22;8239;48.594;8.598;2022-09-27T15:52:02;10.30;88.10
16263;DHT22;8239;48.594;8.598;2022-09-27T15:54:30;9.90;91.60
16263;DHT22;8239;48.594;8.598;2022-09-27T15:57:02;9.70;93.50
16263;DHT22;8239;48.594;8.598;2022-09-27T15:59:32;9.40;95.70
16263;DHT22;8239;48.594;8.598;2022-09-27T16:02:01;9.30;97.50
16263;DHT22;8239;48.594;8.598;2022-09-27T16:04:30;9.10;99.00
16263;DHT22;8239;48.594;8.598;2022-09-27T16:07:00;8.90;99.90
16263;DHT22;8239;48.594;8.598;2022-09-27T16:09:28;8.70;99.90
16263;DHT22;8239;48.594;8.598;2022-09-27T16:11:55;8.60;99.90
16263;DHT22;8239;48.594;8.598;2022-09-27T16:14:23;8.50;99.90
16263;DHT22;8239;48.594;8.598;2022-09-27T16:16:52;8.30;99.90
16263;DHT22;8239;48.594;8.598;2022-09-27T16:19:19;8.20;99.90
16263;DHT22;8239;48.594;8.598;2022-09-27T16:21:47;8.20;99.90
16263;DHT22;8239;48.594;8.598;2022-09-27T16:24:16;8.20;99.90
16263;DHT22;8239;48.594;8.598;2022-09-27T16:26:43;8.20;99.90
16263;DHT22;8239;48.594;8.598;2022-09-27T16:29:12;8.20;99.90
16263;DHT22;8239;48.594;8.598;2022-09-27T16:31:40;8.10;99.90
16263;DHT22;8239;48.594;8.598;2022-09-27T16:34:08;8.00;99.90
16263;DHT22;8239;48.594;8.598;2022-09-27T16:36:35;7.90;99.90
16263;DHT22;8239;48.594;8.598;2022-09-27T16:39:04;7.80;99.90